Time;durP1;ratioP1;P1;durP2;ratioP2;P2;SDS_P1;SDS_P2;PMS_P1;PMS_P2;Temp;Humidity;BMP_temperature;BMP_pressure;BME280_temperature;BME280_humidity;BME280_pressure;Samples;Min_cycle;Max_cycle;Signal;HPM_P1;HPM_P2
2022/02/27 00:00:09;;;;;;;11.90;3.03;;;0.00;75.30;;;;;;5003395;28;20202;-58
2022/02/27 00:02:34;;;;;;;3.80;3.03;;;0.00;76.50;;;;;;5004043;28;20206;-57
2022/02/27 00:05:00;;;;;;;7.57;2.87;;;0.00;77.10;;;;;;4999130;28;20933;-59
2022/02/27 00:07:26;;;;;;;9.83;3.90;;;0.00;77.50;;;;;;5011856;28;20699;-58
2022/02/27 00:09:51;;;;;;;11.97;3.50;;;0.10;77.00;;;;;;4991698;28;20199;-58
2022/02/27 00:12:17;;;;;;;12.50;3.30;;;0.10;76.70;;;;;;4993450;28;20199;-59
2022/02/27 00:14:43;;;;;;;10.07;3.80;;;0.00;76.60;;;;;;5010199;28;20658;-58
2022/02/27 00:17:08;;;;;;;9.77;3.83;;;0.00;77.20;;;;;;5013781;28;20229;-59
2022/02/27 00:19:34;;;;;;;11.00;3.53;;;0.00;78.10;;;;;;5003476;28;20648;-57
2022/02/27 00:22:00;;;;;;;8.10;3.50;;;0.00;78.40;;;;;;4975821;28;20178;-58
2022/02/27 00:24:25;;;;;;;12.23;3.83;;;0.00;78.80;;;;;;4983237;28;20267;-58
2022/02/27 00:26:51;;;;;;;5.77;3.30;;;0.00;78.70;;;;;;4991895;28;20246;-58
2022/02/27 00:29:17;;;;;;;10.40;3.50;;;0.00;79.40;;;;;;4995493;28;20218;-57
2022/02/27 00:31:43;;;;;;;7.53;3.37;;;0.00;79.90;;;;;;4991747;28;20211;-58
2022/02/27 00:34:09;;;;;;;9.57;3.43;;;0.00;80.30;;;;;;4992433;28;20452;-57
2022/02/27 00:36:34;;;;;;;9.90;3.60;;;0.00;80.60;;;;;;4999456;28;20171;-58
2022/02/27 00:39:00;;;;;;;7.90;3.30;;;0.00;80.50;;;;;;4999615;28;20186;-58
2022/02/27 00:41:26;;;;;;;8.87;3.87;;;0.00;80.80;;;;;;5010232;28;20211;-58
2022/02/27 00:43:52;;;;;;;12.60;4.17;;;-0.10;82.30;;;;;;5000301;28;20526;-57
2022/02/27 00:46:17;;;;;;;9.13;3.83;;;-0.10;83.10;;;;;;4981946;28;20184;-59
2022/02/27 00:48:45;;;;;;;12.30;4.03;;;-0.10;83.10;;;;;;4991285;28;20601;-58
2022/02/27 00:51:10;;;;;;;9.40;3.80;;;-0.10;83.40;;;;;;4992224;28;20202;-57
2022/02/27 00:53:36;;;;;;;9.07;3.97;;;-0.10;85.40;;;;;;5006122;28;21000;-58
2022/02/27 00:56:02;;;;;;;7.87;3.50;;;-0.10;86.40;;;;;;4983375;28;20426;-59
2022/02/27 00:58:27;;;;;;;11.27;4.00;;;-0.10;86.10;;;;;;5007166;28;20174;-57
2022/02/27 01:00:53;;;;;;;20.90;5.70;;;-0.10;85.50;;;;;;4990581;28;20307;-59
2022/02/27 01:03:19;;;;;;;10.70;3.80;;;-0.10;86.20;;;;;;4979717;28;20181;-58
2022/02/27 01:05:44;;;;;;;9.70;4.50;;;-0.10;86.60;;;;;;4995473;28;20174;-59
2022/02/27 01:08:10;;;;;;;11.63;4.03;;;-0.10;87.30;;;;;;4996974;28;20559;-58
2022/02/27 01:10:36;;;;;;;12.83;3.70;;;-0.10;87.30;;;;;;4991212;28;20567;-59
2022/02/27 01:13:01;;;;;;;11.73;3.23;;;-0.10;87.50;;;;;;5000293;28;20198;-59
2022/02/27 01:15:27;;;;;;;10.70;3.53;;;-0.10;87.90;;;;;;4995859;28;20174;-58
2022/02/27 01:17:52;;;;;;;6.30;3.80;;;-0.10;87.40;;;;;;5010119;28;20266;-58
2022/02/27 01:20:18;;;;;;;10.27;3.87;;;-0.10;87.60;;;;;;4995540;28;20225;-59
2022/02/27 01:22:44;;;;;;;10.30;3.27;;;-0.10;87.30;;;;;;4997190;28;20249;-58
2022/02/27 01:25:10;;;;;;;8.17;3.20;;;-0.10;88.10;;;;;;4998746;28;20196;-58
2022/02/27 01:27:36;;;;;;;5.60;3.63;;;-0.10;87.60;;;;;;4998641;28;20194;-58
2022/02/27 01:30:05;;;;;;;5.87;3.30;;;-0.10;87.00;;;;;;5008687;28;20457;-58
2022/02/27 01:32:31;;;;;;;12.33;3.20;;;-0.10;88.60;;;;;;4972970;28;20482;-58
2022/02/27 01:34:56;;;;;;;7.20;3.60;;;-0.10;88.90;;;;;;5004411;28;20832;-58
2022/02/27 01:37:22;;;;;;;10.17;3.43;;;-0.10;89.50;;;;;;4985715;28;20702;-58
2022/02/27 01:39:48;;;;;;;10.53;4.07;;;-0.10;89.20;;;;;;4989645;28;20226;-59
2022/02/27 01:42:15;;;;;;;21.17;3.93;;;-0.10;89.20;;;;;;4989911;28;20505;-59
2022/02/27 01:44:42;;;;;;;12.33;3.23;;;-0.10;88.80;;;;;;4994341;28;20910;-59
2022/02/27 01:47:10;;;;;;;13.00;4.53;;;-0.10;88.20;;;;;;4991237;28;20418;-59
2022/02/27 01:49:37;;;;;;;13.27;3.50;;;-0.10;88.30;;;;;;4990400;28;21011;-58
2022/02/27 01:52:05;;;;;;;16.43;5.70;;;-0.10;88.90;;;;;;4993209;28;20472;-58
2022/02/27 01:54:31;;;;;;;18.87;4.73;;;-0.10;87.90;;;;;;4989557;28;20463;-58
2022/02/27 01:56:59;;;;;;;10.10;4.00;;;-0.20;88.40;;;;;;4982236;28;20443;-58
2022/02/27 01:59:24;;;;;;;7.30;4.00;;;-0.20;88.10;;;;;;4991507;28;20529;-58
2022/02/27 02:01:50;;;;;;;10.83;4.40;;;-0.20;88.50;;;;;;4992987;28;20534;-58
2022/02/27 02:04:16;;;;;;;11.37;4.33;;;-0.20;88.40;;;;;;5001052;28;20186;-59
2022/02/27 02:06:41;;;;;;;13.73;4.40;;;-0.20;89.10;;;;;;4999805;28;20263;-59
2022/02/27 02:09:07;;;;;;;19.47;3.57;;;-0.20;89.70;;;;;;4997431;28;20422;-58
2022/02/27 02:11:35;;;;;;;13.50;5.00;;;-0.10;89.30;;;;;;4990466;28;20201;-56
2022/02/27 02:14:02;;;;;;;8.70;4.07;;;-0.10;88.60;;;;;;4989184;28;20675;-58
2022/02/27 02:16:45;;;;;;;13.13;3.90;;;-0.10;88.80;;;;;;4993411;28;20942;-58
2022/02/27 02:19:11;;;;;;;9.27;4.20;;;-0.10;88.50;;;;;;5002338;28;20464;-55
2022/02/27 02:21:39;;;;;;;17.40;4.27;;;-0.10;88.60;;;;;;4990004;28;20902;-58
2022/02/27 02:24:05;;;;;;;6.73;3.13;;;-0.10;89.00;;;;;;4998949;28;20433;-57
2022/02/27 02:26:31;;;;;;;8.00;3.60;;;-0.20;90.20;;;;;;5007440;28;20509;-57
2022/02/27 02:28:57;;;;;;;15.30;4.27;;;-0.20;90.90;;;;;;4998681;28;20466;-58
2022/02/27 02:31:22;;;;;;;17.80;4.50;;;-0.20;91.20;;;;;;4999491;28;20496;-57
2022/02/27 02:33:48;;;;;;;7.93;3.97;;;-0.20;91.20;;;;;;5003280;28;20206;-58
2022/02/27 02:36:14;;;;;;;15.23;4.07;;;-0.20;91.40;;;;;;4988966;28;20556;-58
2022/02/27 02:38:40;;;;;;;16.47;4.10;;;-0.20;91.30;;;;;;4983504;28;20175;-58
2022/02/27 02:41:06;;;;;;;12.10;4.10;;;-0.20;91.10;;;;;;4989793;28;20217;-58
2022/02/27 02:43:31;;;;;;;6.83;3.70;;;-0.20;91.40;;;;;;4986209;28;20434;-58
2022/02/27 02:45:57;;;;;;;9.10;3.90;;;-0.30;91.30;;;;;;4988127;28;20629;-58
2022/02/27 02:48:23;;;;;;;10.07;3.50;;;-0.30;91.40;;;;;;4996998;28;20257;-58
2022/02/27 02:50:49;;;;;;;12.17;4.03;;;-0.30;91.60;;;;;;5000430;28;20195;-58
2022/02/27 02:53:15;;;;;;;6.13;3.50;;;-0.30;91.90;;;;;;4985539;28;20507;-57
2022/02/27 02:55:40;;;;;;;10.50;4.07;;;-0.30;91.40;;;;;;4988586;28;20194;-57
2022/02/27 02:58:06;;;;;;;14.93;3.50;;;-0.30;91.40;;;;;;4990086;28;20632;-57
2022/02/27 03:00:33;;;;;;;7.40;3.30;;;-0.30;91.00;;;;;;4994669;28;20202;-58
2022/02/27 03:02:59;;;;;;;10.10;3.83;;;-0.30;90.60;;;;;;4990269;28;20179;-58
2022/02/27 03:05:24;;;;;;;12.10;3.73;;;-0.40;90.50;;;;;;4990752;28;20969;-58
2022/02/27 03:07:50;;;;;;;8.47;3.50;;;-0.40;90.20;;;;;;5000053;28;20645;-57
2022/02/27 03:10:15;;;;;;;8.27;3.13;;;-0.40;89.70;;;;;;4997446;28;20694;-58
2022/02/27 03:12:41;;;;;;;8.53;3.53;;;-0.40;89.50;;;;;;5010102;28;20190;-57
2022/02/27 03:15:08;;;;;;;8.13;2.80;;;-0.40;89.50;;;;;;4998181;28;20187;-59
2022/02/27 03:17:34;;;;;;;10.40;3.33;;;-0.40;89.00;;;;;;4977491;28;20187;-58
2022/02/27 03:19:59;;;;;;;6.10;3.07;;;-0.40;88.60;;;;;;4993401;28;20449;-58
2022/02/27 03:22:25;;;;;;;10.23;3.47;;;-0.40;87.70;;;;;;4990946;28;20238;-58
2022/02/27 03:24:50;;;;;;;6.30;2.87;;;-0.40;87.90;;;;;;4990367;28;20178;-59
2022/02/27 03:27:16;;;;;;;4.37;2.87;;;-0.50;87.00;;;;;;5004125;28;20209;-58
2022/02/27 03:29:42;;;;;;;11.30;3.53;;;-0.40;86.80;;;;;;5007424;28;20610;-56
2022/02/27 03:32:07;;;;;;;7.27;3.10;;;-0.40;86.00;;;;;;5001779;28;20178;-57
2022/02/27 03:34:33;;;;;;;10.00;3.00;;;-0.40;85.70;;;;;;4991837;28;20457;-56
2022/02/27 03:36:59;;;;;;;5.93;2.73;;;-0.40;84.90;;;;;;4990193;28;20532;-58
2022/02/27 03:39:25;;;;;;;5.17;2.83;;;-0.40;84.50;;;;;;4987960;28;20191;-58
2022/02/27 03:41:50;;;;;;;9.00;3.07;;;-0.40;83.70;;;;;;4992987;28;20551;-57
2022/02/27 03:44:16;;;;;;;11.60;3.13;;;-0.40;83.00;;;;;;4993186;28;20208;-58
2022/02/27 03:46:41;;;;;;;3.77;2.40;;;-0.40;83.30;;;;;;4993042;28;20714;-57
2022/02/27 03:49:07;;;;;;;3.73;2.93;;;-0.40;81.80;;;;;;4993376;28;20234;-57
2022/02/27 03:51:34;;;;;;;12.27;3.00;;;-0.40;81.50;;;;;;5003557;28;20689;-58
2022/02/27 03:54:01;;;;;;;6.63;2.83;;;-0.40;81.10;;;;;;4994060;28;20993;-58
2022/02/27 03:56:27;;;;;;;6.80;2.90;;;-0.40;81.00;;;;;;4995485;28;20469;-58
2022/02/27 03:58:54;;;;;;;4.40;2.80;;;-0.40;81.10;;;;;;4992316;28;21028;-58
2022/02/27 04:01:19;;;;;;;4.07;2.67;;;-0.40;81.20;;;;;;4994094;28;20453;-58
2022/02/27 04:03:45;;;;;;;7.67;3.27;;;-0.40;80.00;;;;;;4992917;28;20675;-58
2022/02/27 04:06:12;;;;;;;5.13;3.27;;;-0.30;79.60;;;;;;4993252;28;20189;-58
2022/02/27 04:08:38;;;;;;;5.50;3.63;;;-0.30;79.10;;;;;;4994909;28;20560;-58
2022/02/27 04:11:04;;;;;;;5.80;2.80;;;-0.30;79.50;;;;;;4991424;28;20457;-58
2022/02/27 04:13:30;;;;;;;7.20;3.00;;;-0.30;78.60;;;;;;4994411;28;20516;-57
2022/02/27 04:15:55;;;;;;;6.73;2.80;;;-0.30;78.50;;;;;;5001998;28;20179;-58
2022/02/27 04:18:21;;;;;;;5.10;2.50;;;-0.30;78.20;;;;;;4992940;28;20175;-58
2022/02/27 04:20:47;;;;;;;6.63;3.60;;;-0.30;78.00;;;;;;4981194;28;20730;-57
2022/02/27 04:23:12;;;;;;;7.40;3.33;;;-0.30;78.50;;;;;;5004465;28;20199;-58
2022/02/27 04:25:38;;;;;;;5.90;3.20;;;-0.30;78.40;;;;;;4992575;28;20187;-58
2022/02/27 04:28:03;;;;;;;6.70;3.40;;;-0.30;78.60;;;;;;4993049;28;20237;-57
2022/02/27 04:30:29;;;;;;;8.60;3.53;;;-0.30;79.10;;;;;;4989191;28;20215;-57
2022/02/27 04:32:55;;;;;;;3.43;3.13;;;-0.40;80.00;;;;;;4992628;28;20603;-56
2022/02/27 04:35:21;;;;;;;8.30;3.40;;;-0.40;81.30;;;;;;4995846;28;20187;-58
2022/02/27 04:37:47;;;;;;;14.93;3.30;;;-0.40;82.00;;;;;;5003891;28;20175;-58
2022/02/27 04:40:13;;;;;;;4.37;3.53;;;-0.40;83.00;;;;;;4993411;28;20461;-58
2022/02/27 04:42:39;;;;;;;5.83;3.83;;;-0.50;83.90;;;;;;5008179;28;21073;-58
2022/02/27 04:45:07;;;;;;;9.90;3.87;;;-0.50;84.90;;;;;;4993363;28;20517;-58
2022/02/27 04:47:32;;;;;;;8.40;3.70;;;-0.50;85.80;;;;;;4989735;28;20446;-59
2022/02/27 04:49:58;;;;;;;14.03;4.40;;;-0.50;86.70;;;;;;4989079;28;20450;-58
2022/02/27 04:52:24;;;;;;;5.30;3.60;;;-0.50;88.10;;;;;;4995436;28;20264;-58
2022/02/27 04:54:50;;;;;;;7.57;3.43;;;-0.50;90.00;;;;;;4991975;28;20663;-59
2022/02/27 04:57:16;;;;;;;8.40;3.90;;;-0.50;90.50;;;;;;5002018;28;20642;-58
2022/02/27 04:59:41;;;;;;;19.43;4.07;;;-0.60;91.40;;;;;;5010192;28;20522;-58
2022/02/27 05:02:07;;;;;;;13.60;6.00;;;-0.60;92.30;;;;;;4991265;28;20432;-58
2022/02/27 05:04:35;;;;;;;9.93;4.17;;;-0.60;93.20;;;;;;4999787;28;20175;-59
2022/02/27 05:07:02;;;;;;;12.43;4.70;;;-0.70;94.30;;;;;;4995596;28;20179;-58
2022/02/27 05:09:28;;;;;;;9.07;4.30;;;-0.60;94.60;;;;;;4996433;28;20833;-58
2022/02/27 05:11:54;;;;;;;15.43;4.60;;;-0.60;94.80;;;;;;5004431;28;20436;-60
2022/02/27 05:14:19;;;;;;;14.13;5.37;;;-0.60;95.10;;;;;;4989422;28;20585;-57
2022/02/27 05:16:45;;;;;;;9.60;4.77;;;-0.60;95.20;;;;;;5000459;28;20178;-59
2022/02/27 05:19:13;;;;;;;9.73;4.77;;;-0.70;95.70;;;;;;5000924;28;20193;-58
2022/02/27 05:21:39;;;;;;;10.63;4.60;;;-0.70;96.10;;;;;;5010976;28;20303;-58
2022/02/27 05:24:05;;;;;;;13.27;4.90;;;-0.70;96.40;;;;;;4995429;28;20711;-56
2022/02/27 05:26:31;;;;;;;9.87;5.77;;;-0.70;97.30;;;;;;5008984;28;20433;-58
2022/02/27 05:28:57;;;;;;;12.57;5.80;;;-0.70;98.20;;;;;;4994478;28;20445;-56
2022/02/27 05:31:22;;;;;;;17.03;5.90;;;-0.80;98.60;;;;;;5005412;28;20556;-56
2022/02/27 05:33:48;;;;;;;13.93;5.63;;;-0.80;99.00;;;;;;4992769;28;20199;-57
2022/02/27 05:36:14;;;;;;;11.83;5.47;;;-0.80;99.40;;;;;;4978934;28;20195;-57
2022/02/27 05:38:39;;;;;;;12.33;5.10;;;-0.80;99.70;;;;;;4994906;28;20355;-58
2022/02/27 05:41:05;;;;;;;13.97;4.83;;;-0.80;99.90;;;;;;4990980;28;20247;-58
2022/02/27 05:43:30;;;;;;;15.20;5.97;;;-0.80;99.50;;;;;;4990460;28;20644;-57
2022/02/27 05:45:56;;;;;;;18.53;5.63;;;-0.80;99.50;;;;;;4991301;28;20195;-58
2022/02/27 05:48:22;;;;;;;13.13;5.73;;;-0.80;99.80;;;;;;5005522;28;20722;-56
2022/02/27 05:50:47;;;;;;;15.07;5.60;;;-0.80;99.80;;;;;;5001075;28;20236;-58
2022/02/27 05:53:13;;;;;;;11.60;5.87;;;-0.80;99.80;;;;;;4986348;28;20566;-58
2022/02/27 05:55:38;;;;;;;13.17;5.37;;;-0.80;99.60;;;;;;4992113;28;20194;-58
2022/02/27 05:58:04;;;;;;;12.07;5.00;;;-0.80;99.30;;;;;;4976591;28;20179;-58
2022/02/27 06:00:30;;;;;;;18.67;6.50;;;-0.80;99.70;;;;;;4988355;28;20671;-58
2022/02/27 06:02:55;;;;;;;15.57;5.53;;;-0.80;99.50;;;;;;4994503;28;20332;-58
2022/02/27 06:05:21;;;;;;;10.27;5.10;;;-0.80;99.30;;;;;;4991361;28;20175;-57
2022/02/27 06:07:47;;;;;;;16.80;5.93;;;-0.80;99.30;;;;;;4990311;28;20211;-58
2022/02/27 06:10:13;;;;;;;10.70;5.03;;;-0.80;99.30;;;;;;4979263;28;20520;-58
2022/02/27 06:12:46;;;;;;;13.17;4.67;;;-0.80;98.80;;;;;;5001895;28;20573;-58
2022/02/27 06:15:11;;;;;;;11.63;5.10;;;-0.80;99.30;;;;;;4987143;28;20670;-58
2022/02/27 06:17:37;;;;;;;9.03;4.53;;;-0.70;99.00;;;;;;5007776;28;20509;-58
2022/02/27 06:20:03;;;;;;;11.37;4.83;;;-0.70;98.40;;;;;;4984966;28;20268;-58
2022/02/27 06:22:29;;;;;;;13.37;4.80;;;-0.70;98.40;;;;;;4988733;28;20241;-59
2022/02/27 06:24:54;;;;;;;11.23;5.30;;;-0.70;98.20;;;;;;4986130;28;20550;-58
2022/02/27 06:27:20;;;;;;;10.23;4.67;;;-0.70;97.30;;;;;;4987991;28;20187;-58
2022/02/27 06:29:46;;;;;;;15.43;5.83;;;-0.70;97.60;;;;;;4988429;28;20235;-56
2022/02/27 06:32:11;;;;;;;8.03;5.07;;;-0.70;97.10;;;;;;4988349;28;20248;-58
2022/02/27 06:34:37;;;;;;;9.57;5.00;;;-0.60;97.30;;;;;;4991808;28;20183;-58
2022/02/27 06:37:03;;;;;;;10.30;4.40;;;-0.60;96.40;;;;;;4983478;28;20834;-57
2022/02/27 06:39:29;;;;;;;19.03;6.00;;;-0.70;96.30;;;;;;4987266;28;20229;-57
2022/02/27 06:41:54;;;;;;;7.93;5.33;;;-0.70;96.80;;;;;;4972826;28;20797;-58
2022/02/27 06:44:20;;;;;;;8.90;4.90;;;-0.70;96.90;;;;;;4989317;28;20187;-58
2022/02/27 06:46:45;;;;;;;9.00;4.57;;;-0.60;97.00;;;;;;4993506;28;20206;-58
2022/02/27 06:49:11;;;;;;;8.70;3.90;;;-0.60;96.40;;;;;;4977867;28;20207;-58
2022/02/27 06:51:37;;;;;;;8.50;4.40;;;-0.60;96.40;;;;;;4988838;28;20215;-57
2022/02/27 06:54:02;;;;;;;9.03;4.93;;;-0.60;96.00;;;;;;4994402;28;20309;-58
2022/02/27 06:56:28;;;;;;;11.50;4.80;;;-0.60;95.90;;;;;;4985296;28;20254;-59
2022/02/27 06:58:54;;;;;;;8.40;5.10;;;-0.60;95.70;;;;;;4987812;28;20191;-59
2022/02/27 07:01:19;;;;;;;6.50;4.50;;;-0.60;95.80;;;;;;4988307;28;20199;-59
2022/02/27 07:03:45;;;;;;;8.50;4.57;;;-0.60;95.80;;;;;;4987391;28;20183;-60
2022/02/27 07:06:11;;;;;;;8.50;4.80;;;-0.50;95.10;;;;;;4987307;28;20191;-58
2022/02/27 07:08:36;;;;;;;4.67;4.17;;;-0.40;94.20;;;;;;4986785;28;20754;-59
2022/02/27 07:11:03;;;;;;;6.73;4.60;;;-0.40;93.80;;;;;;4987311;28;20203;-59
2022/02/27 07:13:32;;;;;;;10.50;5.30;;;-0.30;93.10;;;;;;4992265;28;20225;-59
2022/02/27 07:15:58;;;;;;;9.00;5.20;;;-0.20;92.80;;;;;;4995509;28;20434;-60
2022/02/27 07:18:23;;;;;;;8.67;4.17;;;-0.20;92.20;;;;;;4994109;28;20444;-61
2022/02/27 07:20:49;;;;;;;10.40;5.07;;;-0.10;91.80;;;;;;4994197;28;20678;-59
2022/02/27 07:23:14;;;;;;;9.57;4.60;;;0.00;91.30;;;;;;4996964;28;20269;-59
2022/02/27 07:25:40;;;;;;;12.57;4.93;;;0.00;90.70;;;;;;4992963;28;20221;-60
2022/02/27 07:28:06;;;;;;;13.50;4.87;;;0.10;90.70;;;;;;4993513;28;20226;-59
2022/02/27 07:30:32;;;;;;;13.73;4.50;;;0.20;88.90;;;;;;4995447;28;20608;-58
2022/02/27 07:32:57;;;;;;;13.03;5.17;;;0.30;85.80;;;;;;5001640;28;20659;-58
2022/02/27 07:35:23;;;;;;;7.90;4.67;;;0.40;83.30;;;;;;4989241;28;20183;-58
2022/02/27 07:37:48;;;;;;;13.43;5.10;;;0.40;82.30;;;;;;5005711;28;20197;-59
2022/02/27 07:40:14;;;;;;;9.03;4.63;;;0.50;79.50;;;;;;4994723;28;20219;-61
2022/02/27 07:42:40;;;;;;;9.63;4.50;;;0.50;78.00;;;;;;4993354;28;20219;-58
2022/02/27 07:45:06;;;;;;;10.43;3.93;;;0.60;76.80;;;;;;4994924;28;20187;-59
2022/02/27 07:47:32;;;;;;;7.60;4.37;;;0.60;76.30;;;;;;4991422;28;21670;-60
2022/02/27 07:49:57;;;;;;;10.30;5.07;;;0.60;75.60;;;;;;4995207;28;20465;-57
2022/02/27 07:52:23;;;;;;;9.77;4.97;;;0.70;75.40;;;;;;4991283;28;20234;-57
2022/02/27 07:54:49;;;;;;;9.37;5.10;;;0.80;90.40;;;;;;4992855;28;20217;-56
2022/02/27 07:57:14;;;;;;;20.43;5.20;;;1.00;92.80;;;;;;4992472;28;20253;-59
2022/02/27 07:59:40;;;;;;;8.13;5.00;;;1.30;87.20;;;;;;4991939;28;20187;-60
2022/02/27 08:02:06;;;;;;;5.93;4.40;;;1.40;75.20;;;;;;4991248;28;20187;-59
2022/02/27 08:04:32;;;;;;;14.60;5.03;;;1.40;71.30;;;;;;4991424;28;20183;-59
2022/02/27 08:06:58;;;;;;;12.70;5.13;;;1.30;68.70;;;;;;4990515;28;20438;-59
2022/02/27 08:09:24;;;;;;;6.73;4.60;;;1.40;68.10;;;;;;4992982;28;20195;-57
2022/02/27 08:11:50;;;;;;;5.50;4.07;;;1.30;67.40;;;;;;4989089;28;20454;-61
2022/02/27 08:14:15;;;;;;;15.13;4.73;;;1.40;66.90;;;;;;4997155;28;20675;-59
2022/02/27 08:16:41;;;;;;;11.43;5.00;;;1.40;65.70;;;;;;4995189;28;20188;-59
2022/02/27 08:19:07;;;;;;;7.50;4.00;;;1.50;65.20;;;;;;4991310;28;20201;-59
2022/02/27 08:21:33;;;;;;;8.63;4.70;;;1.50;64.70;;;;;;4992950;28;20692;-60
2022/02/27 08:23:59;;;;;;;8.10;3.70;;;1.60;63.10;;;;;;4990938;28;20564;-60
2022/02/27 08:26:24;;;;;;;6.10;3.73;;;1.60;62.20;;;;;;4989018;28;20424;-60
2022/02/27 08:28:50;;;;;;;9.80;4.50;;;1.70;61.80;;;;;;4995336;28;20173;-60
2022/02/27 08:31:16;;;;;;;9.47;4.53;;;1.80;61.60;;;;;;4995265;28;20252;-60
2022/02/27 08:33:42;;;;;;;11.87;4.77;;;1.80;61.90;;;;;;4983828;28;20774;-59
2022/02/27 08:36:09;;;;;;;7.43;4.30;;;1.90;60.60;;;;;;4988620;28;20184;-59
2022/02/27 08:38:34;;;;;;;7.73;4.20;;;1.90;60.30;;;;;;5005300;28;20628;-58
2022/02/27 08:41:00;;;;;;;5.43;4.10;;;2.00;59.40;;;;;;4992899;28;20551;-59
2022/02/27 08:43:26;;;;;;;5.50;3.70;;;2.10;58.80;;;;;;4993239;28;20530;-60
2022/02/27 08:45:52;;;;;;;4.30;3.20;;;2.10;58.00;;;;;;4995891;28;20677;-59
2022/02/27 08:48:18;;;;;;;7.57;3.77;;;2.20;57.80;;;;;;4995731;28;20680;-59
2022/02/27 08:50:44;;;;;;;7.63;3.73;;;2.20;57.30;;;;;;4992436;28;20441;-59
2022/02/27 08:53:09;;;;;;;5.23;3.87;;;2.30;57.30;;;;;;4988743;28;20207;-60
2022/02/27 08:55:35;;;;;;;5.23;3.97;;;2.40;57.30;;;;;;4986071;28;21023;-60
2022/02/27 08:58:01;;;;;;;7.83;3.87;;;2.50;57.30;;;;;;4992473;28;20194;-59
2022/02/27 09:00:26;;;;;;;4.70;3.40;;;2.60;56.90;;;;;;4990914;28;20193;-61
2022/02/27 09:02:52;;;;;;;9.50;4.30;;;2.60;56.40;;;;;;4997767;28;20252;-60
2022/02/27 09:05:18;;;;;;;8.03;3.77;;;2.70;56.10;;;;;;4990053;28;20169;-60
2022/02/27 09:07:44;;;;;;;8.80;4.20;;;2.70;56.00;;;;;;4991338;28;20485;-60
2022/02/27 09:10:12;;;;;;;4.30;3.90;;;2.80;55.90;;;;;;4989830;28;20213;-60
2022/02/27 09:12:40;;;;;;;6.83;4.20;;;2.80;55.00;;;;;;4986744;28;20232;-60
2022/02/27 09:15:06;;;;;;;6.80;3.67;;;2.90;54.80;;;;;;4991756;28;20464;-60
2022/02/27 09:17:32;;;;;;;13.73;4.30;;;2.90;54.80;;;;;;4987751;28;20441;-60
2022/02/27 09:19:57;;;;;;;4.43;3.47;;;3.00;53.70;;;;;;4991223;28;20641;-60
2022/02/27 09:22:23;;;;;;;8.30;3.50;;;3.10;53.50;;;;;;4991803;28;20635;-59
2022/02/27 09:24:48;;;;;;;5.47;3.90;;;3.10;53.10;;;;;;4986748;28;20195;-59
2022/02/27 09:27:14;;;;;;;5.20;3.37;;;3.20;53.10;;;;;;4984848;28;20297;-59
2022/02/27 09:29:40;;;;;;;4.77;3.47;;;3.30;52.70;;;;;;4981763;28;20209;-59
2022/02/27 09:32:06;;;;;;;5.53;3.20;;;3.40;52.30;;;;;;4981836;28;20189;-60
2022/02/27 09:34:31;;;;;;;5.50;3.50;;;3.50;51.40;;;;;;4979647;28;20295;-60
2022/02/27 09:36:57;;;;;;;6.83;4.60;;;3.50;50.80;;;;;;4985722;28;20440;-60
2022/02/27 09:39:23;;;;;;;7.00;3.33;;;3.60;50.80;;;;;;4985799;28;20841;-59
2022/02/27 09:41:48;;;;;;;8.67;4.03;;;3.60;50.50;;;;;;4984067;28;20216;-61
2022/02/27 09:44:14;;;;;;;7.87;3.20;;;3.70;50.70;;;;;;4987231;28;20186;-59
2022/02/27 09:46:42;;;;;;;10.50;3.83;;;3.70;50.30;;;;;;4986514;28;20268;-60
2022/02/27 09:49:08;;;;;;;7.73;3.43;;;3.80;49.90;;;;;;4981810;28;20188;-59
2022/02/27 09:51:33;;;;;;;13.53;3.87;;;3.80;50.30;;;;;;4997237;28;20457;-59
2022/02/27 09:53:59;;;;;;;8.53;4.03;;;3.90;50.70;;;;;;4985487;28;20213;-60
2022/02/27 09:56:26;;;;;;;4.97;3.60;;;4.00;50.70;;;;;;4983552;28;20182;-59
2022/02/27 09:58:51;;;;;;;5.40;4.20;;;4.10;50.50;;;;;;4981148;28;20439;-60
2022/02/27 10:01:18;;;;;;;7.10;3.90;;;4.20;50.00;;;;;;4984788;28;20463;-59
2022/02/27 10:03:44;;;;;;;5.50;3.83;;;4.30;50.20;;;;;;4981830;28;20181;-58
2022/02/27 10:06:12;;;;;;;7.10;4.20;;;4.40;50.10;;;;;;4985607;28;20539;-59
2022/02/27 10:08:43;;;;;;;7.33;4.10;;;4.40;50.10;;;;;;4980085;28;20492;-59
2022/02/27 10:11:16;;;;;;;6.33;3.77;;;4.50;49.50;;;;;;4981706;28;20973;-59
2022/02/27 10:13:46;;;;;;;8.10;3.90;;;4.50;48.60;;;;;;4984299;28;20467;-62
2022/02/27 10:16:26;;;;;;;4.90;3.87;;;4.60;48.50;;;;;;4978220;28;20428;-59
2022/02/27 10:18:55;;;;;;;5.20;4.03;;;4.60;48.50;;;;;;4979337;28;20781;-57
2022/02/27 10:21:27;;;;;;;15.03;4.87;;;4.60;48.70;;;;;;4978850;28;20456;-58
2022/02/27 10:23:56;;;;;;;8.47;3.83;;;4.70;48.30;;;;;;4983910;28;20447;-59
2022/02/27 10:26:28;;;;;;;6.87;4.30;;;4.70;48.20;;;;;;4982328;28;20445;-61
2022/02/27 10:29:06;;;;;;;10.77;4.60;;;4.80;48.40;;;;;;4986078;28;20424;-60
2022/02/27 10:31:32;;;;;;;6.03;4.37;;;4.90;48.80;;;;;;4986976;28;20456;-60
2022/02/27 10:34:28;;;;;;;8.83;4.40;;;4.90;48.50;;;;;;4989156;28;20513;-59
2022/02/27 10:36:56;;;;;;;7.17;4.37;;;5.00;48.60;;;;;;4986944;28;20433;-61
2022/02/27 10:39:34;;;;;;;6.43;4.67;;;5.10;48.30;;;;;;4987585;28;20432;-60
2022/02/27 10:42:17;;;;;;;6.20;4.40;;;5.20;49.00;;;;;;4986756;28;20439;-59
2022/02/27 10:44:52;;;;;;;6.30;4.27;;;5.30;49.20;;;;;;4982741;28;21627;-59
2022/02/27 10:47:17;;;;;;;8.33;5.20;;;5.30;48.80;;;;;;4986404;28;20443;-59
2022/02/27 10:49:45;;;;;;;6.47;4.27;;;5.40;49.30;;;;;;4999301;28;20436;-59
2022/02/27 10:52:26;;;;;;;7.37;5.00;;;5.50;48.70;;;;;;5000100;28;20187;-59
2022/02/27 10:54:57;;;;;;;9.97;5.47;;;5.60;49.20;;;;;;5000389;28;20487;-61
2022/02/27 10:57:35;;;;;;;6.57;5.13;;;5.80;49.00;;;;;;4985494;28;20444;-60
2022/02/27 11:00:25;;;;;;;10.87;4.80;;;5.90;48.80;;;;;;4985326;28;20859;-60
2022/02/27 11:02:52;;;;;;;9.93;4.53;;;5.90;48.30;;;;;;4985437;28;20424;-60
2022/02/27 11:05:23;;;;;;;8.80;4.63;;;6.00;48.50;;;;;;4987330;28;20452;-59
2022/02/27 11:07:51;;;;;;;6.47;4.57;;;6.10;48.50;;;;;;4988120;28;20471;-59
2022/02/27 11:10:19;;;;;;;5.17;4.53;;;6.30;48.40;;;;;;4986158;28;20547;-59
2022/02/27 11:12:45;;;;;;;9.43;4.87;;;6.40;47.80;;;;;;4988886;28;20467;-59
2022/02/27 11:15:17;;;;;;;12.17;4.90;;;6.60;47.40;;;;;;4983389;28;20482;-60
2022/02/27 11:17:44;;;;;;;5.63;4.10;;;6.70;48.00;;;;;;4987414;28;20431;-58
2022/02/27 11:20:11;;;;;;;13.10;5.40;;;6.80;47.30;;;;;;4987678;28;20452;-59
2022/02/27 11:22:37;;;;;;;9.03;4.87;;;6.90;47.10;;;;;;4990858;28;20428;-58
2022/02/27 11:25:08;;;;;;;13.23;5.40;;;7.00;46.10;;;;;;4997508;28;20442;-59
2022/02/27 11:27:36;;;;;;;7.50;5.33;;;7.30;45.90;;;;;;4980202;28;20516;-59
2022/02/27 11:30:03;;;;;;;7.10;4.40;;;7.80;45.90;;;;;;4987407;28;20463;-61
2022/02/27 11:32:29;;;;;;;6.80;4.53;;;8.40;45.40;;;;;;4990658;28;20742;-61
2022/02/27 11:34:55;;;;;;;8.47;5.10;;;8.90;43.80;;;;;;4992025;28;20427;-60
2022/02/27 11:37:49;;;;;;;7.57;4.67;;;9.30;43.10;;;;;;4981640;28;20236;-59
2022/02/27 11:40:30;;;;;;;7.10;5.47;;;9.70;42.60;;;;;;4984190;28;20220;-59
2022/02/27 11:42:57;;;;;;;10.97;5.40;;;10.00;40.50;;;;;;4987041;28;20491;-59
2022/02/27 11:45:55;;;;;;;6.67;5.13;;;10.40;43.60;;;;;;4981801;28;20798;-60
2022/02/27 11:48:57;;;;;;;3.83;3.53;;;11.20;43.00;;;;;;4984511;28;20436;-59
2022/02/27 11:51:38;;;;;;;11.00;5.13;;;12.00;41.10;;;;;;4937636;28;20467;-57
2022/02/27 11:54:08;;;;;;;8.70;4.80;;;12.70;37.80;;;;;;4985635;28;20546;-57
2022/02/27 11:56:34;;;;;;;6.87;5.17;;;13.00;35.50;;;;;;4985634;28;20502;-58
2022/02/27 11:59:00;;;;;;;5.17;4.17;;;13.10;35.00;;;;;;4986204;28;20467;-57
2022/02/27 12:01:44;;;;;;;5.93;4.53;;;13.10;34.40;;;;;;4986079;28;20506;-57
2022/02/27 12:04:19;;;;;;;7.17;4.00;;;13.10;34.00;;;;;;4987838;28;20443;-58
2022/02/27 12:07:04;;;;;;;6.03;4.10;;;13.50;33.40;;;;;;4984247;28;20548;-61
2022/02/27 12:09:52;;;;;;;7.23;4.00;;;14.10;32.70;;;;;;4989772;28;20431;-60
2022/02/27 12:12:40;;;;;;;4.53;4.13;;;14.50;32.20;;;;;;4984526;28;20443;-61
2022/02/27 12:15:29;;;;;;;5.90;3.73;;;14.80;29.90;;;;;;4989490;28;20444;-61
2022/02/27 12:18:07;;;;;;;4.43;3.70;;;15.10;30.00;;;;;;4990371;28;20509;-56
2022/02/27 12:20:45;;;;;;;5.03;3.67;;;15.50;29.30;;;;;;4988951;28;20438;-58
2022/02/27 12:23:32;;;;;;;4.90;3.70;;;15.70;28.90;;;;;;4984517;28;20440;-58
2022/02/27 12:26:03;;;;;;;5.33;3.43;;;16.00;28.80;;;;;;4989008;28;21014;-57
2022/02/27 12:28:51;;;;;;;4.23;3.53;;;16.30;28.40;;;;;;4989111;28;20448;-58
2022/02/27 12:31:20;;;;;;;4.30;3.90;;;16.30;28.20;;;;;;4985580;28;20460;-58
2022/02/27 12:33:47;;;;;;;4.87;3.57;;;16.10;27.90;;;;;;4988390;28;20532;-61
2022/02/27 12:36:36;;;;;;;3.33;3.00;;;16.00;27.90;;;;;;4984168;28;20436;-59
2022/02/27 12:39:11;;;;;;;4.53;3.93;;;15.90;27.10;;;;;;4983010;28;20559;-59
2022/02/27 12:41:48;;;;;;;3.20;2.90;;;15.90;27.20;;;;;;4987611;28;20467;-59
2022/02/27 12:44:25;;;;;;;3.50;3.20;;;16.00;26.30;;;;;;4988880;28;20480;-58
2022/02/27 12:46:52;;;;;;;2.90;2.70;;;15.70;26.00;;;;;;4984332;28;20514;-58
2022/02/27 12:52:17;;;;;;;5.30;3.57;;;14.90;27.30;;;;;;4983964;28;20452;-60